Rysy — C6ZA3 — position and weather

sailwx.info

Track history (hours):
 
Tides and Currents Weather Stations Pressure Air Temp Water Temp Dewpoint Dewpoint Depression Visibility Wind Speed Wind Dir Waves Ship Positions

Rysy

Last reported at 2017-Jun-25 01:59 UTC. Time now 2017-Jun-26 12:19 UTC.
Position N 37°16' E 024°05'.

Length 229 m; draft 6.9 m.

Type: Cargo ship. MMSI: 311051200.

Date/timePositionNaut miles runAvg speedWind from/ knotsBaromVisibWave heightAir tempDewpointWater temp
2017-Jun-25 01:59N 37°16' E 024°05'812.1
2017-Jun-25 01:21N 37°10' E 023°59'412.2
2017-Jun-25 00:59N 37°07' E 023°55'36312.3
2017-Jun-23 19:23N 36°21' E 016°25'2212.7
2017-Jun-23 17:38N 36°21' E 015°57'212.5
2017-Jun-23 17:29N 36°21' E 015°55'612.5
2017-Jun-23 17:00N 36°22' E 015°47'612.5
2017-Jun-23 16:30N 36°22' E 015°40'1012.6
2017-Jun-23 15:42N 36°22' E 015°27'213.0
2017-Jun-23 15:31N 36°22' E 015°24'813.2
2017-Jun-23 14:54N 36°22' E 015°14'1213.7
2017-Jun-23 14:00N 36°22' E 014°59'813.8
2017-Jun-23 13:25N 36°22' E 014°49'613.9
2017-Jun-23 13:00N 36°22' E 014°42'713.8
2017-Jun-23 12:30N 36°24' E 014°33'714.0
2017-Jun-23 12:00N 36°26' E 014°25'713.8
2017-Jun-23 11:30N 36°28' E 014°17'713.8
2017-Jun-23 11:00N 36°31' E 014°09'713.8
2017-Jun-23 10:30N 36°33' E 014°01'713.7
2017-Jun-23 10:00N 36°35' E 013°53'713.8
2017-Jun-23 09:30N 36°37' E 013°45'713.7
2017-Jun-23 09:00N 36°39' E 013°37'713.4
2017-Jun-23 08:30N 36°41' E 013°29'713.3
2017-Jun-23 08:00N 36°44' E 013°21'713.2
2017-Jun-23 07:30N 36°46' E 013°13'713.2
2017-Jun-23 07:00N 36°48' E 013°05'613.0
2017-Jun-23 06:30N 36°50' E 012°57'612.9
2017-Jun-23 06:00N 36°52' E 012°50'612.5
2017-Jun-23 05:30N 36°55' E 012°43'612.7
2017-Jun-23 05:00N 36°57' E 012°35'713.4
2017-Jun-23 04:30N 36°59' E 012°27'713.4
2017-Jun-23 04:00N 37°01' E 012°20'713.2
2017-Jun-23 03:29N 37°03' E 012°12'613.2
2017-Jun-23 03:00N 37°06' E 012°04'713.3
2017-Jun-23 02:30N 37°08' E 011°56'713.2
2017-Jun-23 02:00N 37°10' E 011°48'713.0
2017-Jun-23 01:30N 37°12' E 011°40'613.1
2017-Jun-23 01:00N 37°14' E 011°33'713.0
2017-Jun-23 00:30N 37°16' E 011°25'613.0
2017-Jun-23 00:00N 37°19' E 011°17'1113.0
2017-Jun-22 23:08N 37°23' E 011°05'213.2
2017-Jun-22 23:00N 37°23' E 011°02'713.2
2017-Jun-22 22:28N 37°25' E 010°54'613.4
2017-Jun-22 22:00N 37°27' E 010°46'713.2
2017-Jun-22 21:29N 37°29' E 010°38'613.1
2017-Jun-22 21:00N 37°30' E 010°30'612.9
2017-Jun-22 20:30N 37°32' E 010°22'712.8
2017-Jun-22 19:55N 37°33' E 010°13'512.8
2017-Jun-22 19:30N 37°33' E 010°06'612.6
2017-Jun-22 19:00N 37°33' E 009°58'612.5
2017-Jun-22 18:30N 37°32' E 009°51'612.7
2017-Jun-22 18:00N 37°31' E 009°43'3012.3
2017-Jun-22 15:33N 37°25' E 009°06'112.3
2017-Jun-22 15:29N 37°25' E 009°05'712.2
2017-Jun-22 14:57N 37°24' E 008°57'1212.4
2017-Jun-22 14:00N 37°21' E 008°42'20513.0
2017-Jun-21 22:12N 37°14' E 004°24'313.0
2017-Jun-21 22:00N 37°14' E 004°21'1113.1
2017-Jun-21 21:11N 37°13' E 004°08'213.1
2017-Jun-21 21:00N 37°13' E 004°05'613.0
2017-Jun-21 20:30N 37°11' E 003°57'612.7
2017-Jun-21 20:00N 37°10' E 003°49'712.5
2017-Jun-21 19:28N 37°09' E 003°41'812.3
2017-Jun-21 18:51N 37°08' E 003°31'412.2
2017-Jun-21 18:30N 37°07' E 003°26'612.2
2017-Jun-21 18:00N 37°06' E 003°18'1312.2
2017-Jun-21 16:55N 37°04' E 003°02'512.2
2017-Jun-21 16:29N 37°02' E 002°56'612.2
2017-Jun-21 16:00N 37°01' E 002°49'612.1
2017-Jun-21 15:30N 36°60' E 002°41'612.1
2017-Jun-21 14:59N 36°58' E 002°34'612.1
2017-Jun-21 14:30N 36°57' E 002°26'1212.1
2017-Jun-21 13:30N 36°55' E 002°12'712.0
2017-Jun-21 12:57N 36°53' E 002°04'712.1
2017-Jun-21 12:25N 36°53' E 001°55'812.2
2017-Jun-21 11:45N 36°52' E 001°45'312.2
2017-Jun-21 11:28N 36°51' E 001°41'912.1
2017-Jun-21 10:46N 36°49' E 001°31'411.9
2017-Jun-21 10:26N 36°48' E 001°26'711.9
2017-Jun-21 09:52N 36°47' E 001°18'1712.2
2017-Jun-21 08:29N 36°43' E 000°57'612.5
2017-Jun-21 08:00N 36°43' E 000°50'612.5
2017-Jun-21 07:29N 36°42' E 000°42'1412.5
2017-Jun-21 06:22N 36°39' E 000°25'612.8
2017-Jun-21 05:52N 36°38' E 000°17'612.8
2017-Jun-21 05:26N 36°37' E 000°10'612.8
2017-Jun-21 04:59N 36°36' E 000°03'812.7
2017-Jun-21 04:22N 36°34' W 000°06'2112.6
2017-Jun-21 02:44N 36°30' W 000°31'412.5
2017-Jun-21 02:25N 36°29' W 000°36'512.4
2017-Jun-21 02:00N 36°28' W 000°42'812.4
2017-Jun-21 01:23N 36°26' W 000°52'512.3
2017-Jun-21 00:56N 36°25' W 000°58'612.4
2017-Jun-21 00:30N 36°25' W 001°05'912.4
2017-Jun-20 23:45N 36°23' W 001°17'512.6
2017-Jun-20 23:21N 36°22' W 001°23'412.7
2017-Jun-20 23:00N 36°21' W 001°28'612.4
2017-Jun-20 22:30N 36°20' W 001°36'612.2
2017-Jun-20 22:00N 36°19' W 001°43'712.1
2017-Jun-20 21:28N 36°18' W 001°51'612.4
2017-Jun-20 20:58N 36°16' W 001°58'  
2017-Jun-16 18:43N 36°53' W 001°38'311.1
2017-Jun-16 18:29N 36°55' W 001°36'610.9
2017-Jun-16 17:56N 36°60' W 001°31'1111.0
2017-Jun-16 16:56N 37°09' W 001°23'  
Track history (hours):
 
Tides and Currents Weather Stations Pressure Air Temp Water Temp Dewpoint Dewpoint Depression Visibility Wind Speed Wind Dir Waves Ship Positions

Rysy

Last reported at 2017-Jun-25 01:59 UTC. Time now 2017-Jun-26 12:19 UTC.
Position N 37°16' E 024°05'.

Length 229 m; draft 6.9 m.

Type: Cargo ship. MMSI: 311051200.

Date/timePositionNaut miles runAvg speedWind from/ knotsBaromVisibWave heightAir tempDewpointWater temp
2017-Jun-25 01:59N 37°16' E 024°05'812.1
2017-Jun-25 01:21N 37°10' E 023°59'412.2
2017-Jun-25 00:59N 37°07' E 023°55'36312.3
2017-Jun-23 19:23N 36°21' E 016°25'2212.7
2017-Jun-23 17:38N 36°21' E 015°57'212.5
2017-Jun-23 17:29N 36°21' E 015°55'612.5
2017-Jun-23 17:00N 36°22' E 015°47'612.5
2017-Jun-23 16:30N 36°22' E 015°40'1012.6
2017-Jun-23 15:42N 36°22' E 015°27'213.0
2017-Jun-23 15:31N 36°22' E 015°24'813.2
2017-Jun-23 14:54N 36°22' E 015°14'1213.7
2017-Jun-23 14:00N 36°22' E 014°59'813.8
2017-Jun-23 13:25N 36°22' E 014°49'613.9
2017-Jun-23 13:00N 36°22' E 014°42'713.8
2017-Jun-23 12:30N 36°24' E 014°33'714.0
2017-Jun-23 12:00N 36°26' E 014°25'713.8
2017-Jun-23 11:30N 36°28' E 014°17'713.8
2017-Jun-23 11:00N 36°31' E 014°09'713.8
2017-Jun-23 10:30N 36°33' E 014°01'713.7
2017-Jun-23 10:00N 36°35' E 013°53'713.8
2017-Jun-23 09:30N 36°37' E 013°45'713.7
2017-Jun-23 09:00N 36°39' E 013°37'713.4
2017-Jun-23 08:30N 36°41' E 013°29'713.3
2017-Jun-23 08:00N 36°44' E 013°21'713.2
2017-Jun-23 07:30N 36°46' E 013°13'713.2
2017-Jun-23 07:00N 36°48' E 013°05'613.0
2017-Jun-23 06:30N 36°50' E 012°57'612.9
2017-Jun-23 06:00N 36°52' E 012°50'612.5
2017-Jun-23 05:30N 36°55' E 012°43'612.7
2017-Jun-23 05:00N 36°57' E 012°35'713.4
2017-Jun-23 04:30N 36°59' E 012°27'713.4
2017-Jun-23 04:00N 37°01' E 012°20'713.2
2017-Jun-23 03:29N 37°03' E 012°12'613.2
2017-Jun-23 03:00N 37°06' E 012°04'713.3
2017-Jun-23 02:30N 37°08' E 011°56'713.2
2017-Jun-23 02:00N 37°10' E 011°48'713.0
2017-Jun-23 01:30N 37°12' E 011°40'613.1
2017-Jun-23 01:00N 37°14' E 011°33'713.0
2017-Jun-23 00:30N 37°16' E 011°25'613.0
2017-Jun-23 00:00N 37°19' E 011°17'1113.0
2017-Jun-22 23:08N 37°23' E 011°05'213.2
2017-Jun-22 23:00N 37°23' E 011°02'713.2
2017-Jun-22 22:28N 37°25' E 010°54'613.4
2017-Jun-22 22:00N 37°27' E 010°46'713.2
2017-Jun-22 21:29N 37°29' E 010°38'613.1
2017-Jun-22 21:00N 37°30' E 010°30'612.9
2017-Jun-22 20:30N 37°32' E 010°22'712.8
2017-Jun-22 19:55N 37°33' E 010°13'512.8
2017-Jun-22 19:30N 37°33' E 010°06'612.6
2017-Jun-22 19:00N 37°33' E 009°58'612.5
2017-Jun-22 18:30N 37°32' E 009°51'612.7
2017-Jun-22 18:00N 37°31' E 009°43'3012.3
2017-Jun-22 15:33N 37°25' E 009°06'112.3
2017-Jun-22 15:29N 37°25' E 009°05'712.2
2017-Jun-22 14:57N 37°24' E 008°57'1212.4
2017-Jun-22 14:00N 37°21' E 008°42'20513.0
2017-Jun-21 22:12N 37°14' E 004°24'313.0
2017-Jun-21 22:00N 37°14' E 004°21'1113.1
2017-Jun-21 21:11N 37°13' E 004°08'213.1
2017-Jun-21 21:00N 37°13' E 004°05'613.0
2017-Jun-21 20:30N 37°11' E 003°57'612.7
2017-Jun-21 20:00N 37°10' E 003°49'712.5
2017-Jun-21 19:28N 37°09' E 003°41'812.3
2017-Jun-21 18:51N 37°08' E 003°31'412.2
2017-Jun-21 18:30N 37°07' E 003°26'612.2
2017-Jun-21 18:00N 37°06' E 003°18'1312.2
2017-Jun-21 16:55N 37°04' E 003°02'512.2
2017-Jun-21 16:29N 37°02' E 002°56'612.2
2017-Jun-21 16:00N 37°01' E 002°49'612.1
2017-Jun-21 15:30N 36°60' E 002°41'612.1
2017-Jun-21 14:59N 36°58' E 002°34'612.1
2017-Jun-21 14:30N 36°57' E 002°26'1212.1
2017-Jun-21 13:30N 36°55' E 002°12'712.0
2017-Jun-21 12:57N 36°53' E 002°04'712.1
2017-Jun-21 12:25N 36°53' E 001°55'812.2
2017-Jun-21 11:45N 36°52' E 001°45'312.2
2017-Jun-21 11:28N 36°51' E 001°41'912.1
2017-Jun-21 10:46N 36°49' E 001°31'411.9
2017-Jun-21 10:26N 36°48' E 001°26'711.9
2017-Jun-21 09:52N 36°47' E 001°18'1712.2
2017-Jun-21 08:29N 36°43' E 000°57'612.5
2017-Jun-21 08:00N 36°43' E 000°50'612.5
2017-Jun-21 07:29N 36°42' E 000°42'1412.5
2017-Jun-21 06:22N 36°39' E 000°25'612.8
2017-Jun-21 05:52N 36°38' E 000°17'612.8
2017-Jun-21 05:26N 36°37' E 000°10'612.8
2017-Jun-21 04:59N 36°36' E 000°03'812.7
2017-Jun-21 04:22N 36°34' W 000°06'2112.6
2017-Jun-21 02:44N 36°30' W 000°31'412.5
2017-Jun-21 02:25N 36°29' W 000°36'512.4
2017-Jun-21 02:00N 36°28' W 000°42'812.4
2017-Jun-21 01:23N 36°26' W 000°52'512.3
2017-Jun-21 00:56N 36°25' W 000°58'612.4
2017-Jun-21 00:30N 36°25' W 001°05'912.4
2017-Jun-20 23:45N 36°23' W 001°17'512.6
2017-Jun-20 23:21N 36°22' W 001°23'412.7
2017-Jun-20 23:00N 36°21' W 001°28'612.4
2017-Jun-20 22:30N 36°20' W 001°36'612.2
2017-Jun-20 22:00N 36°19' W 001°43'712.1
2017-Jun-20 21:28N 36°18' W 001°51'612.4
2017-Jun-20 20:58N 36°16' W 001°58'  
2017-Jun-16 18:43N 36°53' W 001°38'311.1
2017-Jun-16 18:29N 36°55' W 001°36'610.9
2017-Jun-16 17:56N 36°60' W 001°31'1111.0
2017-Jun-16 16:56N 37°09' W 001°23'  

Dump ship's entire track history